Time;durP1;ratioP1;P1;durP2;ratioP2;P2;SDS_P1;SDS_P2;PMS_P1;PMS_P2;Temp;Humidity;BMP_temperature;BMP_pressure;BME280_temperature;BME280_humidity;BME280_pressure;Samples;Min_cycle;Max_cycle;Signal;HPM_P1;HPM_P2
2022/01/17 00:02:08;;;;;;;11.27;1.92;;;;;;;;;;5070502;28;20109;-64
2022/01/17 00:04:34;;;;;;;11.77;2.10;;;;;;;;;;5069837;28;20065;-64
2022/01/17 00:07:00;;;;;;;20.70;3.67;;;;;;;;;;5069003;28;20040;-64
2022/01/17 00:09:27;;;;;;;10.35;1.83;;;;;;;;;;5070537;28;20029;-64
2022/01/17 00:11:53;;;;;;;21.38;2.15;;;;;;;;;;5069952;28;20090;-64
2022/01/17 00:14:23;;;;;;;7.90;1.88;;;;;;;;;;5070708;28;20040;-64
2022/01/17 00:17:03;;;;;;;15.38;2.97;;;;;;;;;;5070534;28;20433;-64
2022/01/17 00:19:37;;;;;;;12.73;2.13;;;;;;;;;;5069655;28;20046;-64
2022/01/17 00:22:04;;;;;;;11.43;1.73;;;;;;;;;;5069859;28;20055;-64
2022/01/17 00:24:30;;;;;;;20.63;2.67;;;;;;;;;;5068879;28;20084;-64
2022/01/17 00:26:56;;;;;;;14.25;2.38;;;;;;;;;;5067866;28;20071;-64
2022/01/17 00:29:23;;;;;;;13.50;2.00;;;;;;;;;;5070253;28;20495;-64
2022/01/17 00:31:49;;;;;;;15.73;2.05;;;;;;;;;;5102754;28;20071;-64
2022/01/17 00:34:15;;;;;;;16.15;2.35;;;;;;;;;;5069465;28;20063;-64
2022/01/17 00:36:41;;;;;;;18.08;2.25;;;;;;;;;;5070215;28;20036;-64
2022/01/17 00:39:07;;;;;;;13.85;2.03;;;;;;;;;;5102749;28;20052;-64
2022/01/17 00:41:33;;;;;;;13.45;2.08;;;;;;;;;;5069393;28;20040;-64
2022/01/17 00:43:59;;;;;;;17.30;2.33;;;;;;;;;;5102485;28;20143;-64
2022/01/17 00:46:25;;;;;;;17.20;2.33;;;;;;;;;;5102263;28;20048;-64
2022/01/17 00:48:51;;;;;;;14.80;2.05;;;;;;;;;;5084876;28;20051;-64
2022/01/17 00:51:18;;;;;;;14.02;2.17;;;;;;;;;;5102349;28;20399;-64
2022/01/17 00:53:44;;;;;;;19.00;2.45;;;;;;;;;;5070029;28;20475;-64
2022/01/17 00:56:10;;;;;;;18.40;2.78;;;;;;;;;;5069372;28;20044;-64
2022/01/17 00:58:36;;;;;;;17.00;2.58;;;;;;;;;;5069929;28;20040;-64
2022/01/17 01:01:02;;;;;;;12.98;1.98;;;;;;;;;;5069632;28;20063;-64
2022/01/17 01:03:28;;;;;;;19.30;2.47;;;;;;;;;;5068908;28;20041;-64
2022/01/17 01:05:54;;;;;;;19.27;3.10;;;;;;;;;;5069844;28;20037;-64
2022/01/17 01:08:20;;;;;;;18.83;2.75;;;;;;;;;;5073639;28;20491;-64
2022/01/17 01:10:46;;;;;;;13.85;2.28;;;;;;;;;;5106323;28;20063;-64
2022/01/17 01:13:12;;;;;;;18.48;2.55;;;;;;;;;;5073378;28;20032;-64
2022/01/17 01:18:16;;;;;;;17.90;2.20;;;;;;;;;;5073596;28;20045;-64
2022/01/17 01:28:39;;;;;;;15.65;1.73;;;;;;;;;;5073361;28;20474;-64
2022/01/17 01:31:12;;;;;;;20.88;2.33;;;;;;;;;;5073117;28;20082;-64
2022/01/17 01:33:41;;;;;;;13.80;2.22;;;;;;;;;;5072841;28;20045;-64
2022/01/17 01:36:13;;;;;;;19.27;3.50;;;;;;;;;;5072113;28;20418;-64
2022/01/17 01:38:41;;;;;;;30.63;2.92;;;;;;;;;;5073219;28;20115;-64
2022/01/17 01:41:07;;;;;;;13.75;2.15;;;;;;;;;;5072588;28;20486;-64
2022/01/17 01:43:33;;;;;;;19.60;2.45;;;;;;;;;;5073211;28;20043;-64
2022/01/17 01:46:01;;;;;;;14.13;2.40;;;;;;;;;;5073107;28;20398;-64
2022/01/17 01:48:28;;;;;;;12.75;2.42;;;;;;;;;;5072257;28;20041;-64
2022/01/17 01:50:54;;;;;;;23.92;2.42;;;;;;;;;;5072725;28;20037;-64
2022/01/17 01:53:22;;;;;;;18.50;2.45;;;;;;;;;;5072864;28;20490;-64
2022/01/17 01:55:50;;;;;;;16.25;2.20;;;;;;;;;;5072232;28;20487;-64
2022/01/17 01:58:16;;;;;;;15.65;2.20;;;;;;;;;;5072935;28;20471;-64
2022/01/17 02:00:43;;;;;;;9.88;1.88;;;;;;;;;;5071605;28;20055;-64
2022/01/17 02:03:09;;;;;;;14.77;2.08;;;;;;;;;;5071760;28;20036;-64
2022/01/17 02:05:35;;;;;;;11.45;2.75;;;;;;;;;;5071250;28;20045;-64
2022/01/17 02:08:01;;;;;;;12.95;2.10;;;;;;;;;;5071291;28;20483;-64
2022/01/17 02:10:27;;;;;;;12.27;2.08;;;;;;;;;;5071759;28;20044;-64
2022/01/17 02:12:53;;;;;;;14.77;2.50;;;;;;;;;;5072331;28;20098;-64
2022/01/17 02:15:19;;;;;;;23.30;2.75;;;;;;;;;;5072587;28;20436;-64
2022/01/17 02:17:56;;;;;;;19.10;2.63;;;;;;;;;;5071564;28;20154;-64
2022/01/17 02:20:24;;;;;;;14.27;2.38;;;;;;;;;;5072119;28;20040;-64
2022/01/17 02:22:50;;;;;;;14.15;2.10;;;;;;;;;;5072300;28;20058;-64
2022/01/17 02:25:16;;;;;;;19.00;2.30;;;;;;;;;;5071476;28;20037;-64
2022/01/17 02:27:43;;;;;;;21.48;2.63;;;;;;;;;;5072435;28;20120;-64
2022/01/17 02:30:11;;;;;;;18.65;2.30;;;;;;;;;;5072412;28;20032;-64
2022/01/17 02:32:37;;;;;;;17.92;2.10;;;;;;;;;;5071387;28;20049;-64
2022/01/17 02:35:13;;;;;;;19.70;2.42;;;;;;;;;;5072165;28;20064;-64
2022/01/17 02:37:39;;;;;;;19.80;1.90;;;;;;;;;;5070957;28;20062;-64
2022/01/17 02:40:05;;;;;;;17.52;2.58;;;;;;;;;;5103668;28;20041;-64
2022/01/17 02:42:33;;;;;;;19.92;2.05;;;;;;;;;;5072206;28;20041;-64
2022/01/17 02:45:08;;;;;;;21.42;2.53;;;;;;;;;;5071739;28;20044;-64
2022/01/17 02:47:35;;;;;;;22.20;2.47;;;;;;;;;;5071259;28;20048;-64
2022/01/17 02:50:01;;;;;;;19.63;2.28;;;;;;;;;;5104480;28;20037;-64
2022/01/17 02:52:27;;;;;;;16.85;2.00;;;;;;;;;;5071996;28;20075;-64
2022/01/17 02:54:52;;;;;;;13.63;1.98;;;;;;;;;;5070843;28;20047;-64
2022/01/17 02:57:18;;;;;;;16.80;2.35;;;;;;;;;;5071885;28;20052;-64
2022/01/17 02:59:44;;;;;;;18.77;3.38;;;;;;;;;;5104663;28;20471;-64
2022/01/17 03:02:10;;;;;;;15.32;2.38;;;;;;;;;;5070882;28;20044;-64
2022/01/17 03:04:36;;;;;;;19.65;2.63;;;;;;;;;;5071548;28;20039;-64
2022/01/17 03:07:02;;;;;;;14.57;2.20;;;;;;;;;;5070048;28;20399;-64
2022/01/17 03:09:35;;;;;;;15.73;2.08;;;;;;;;;;5070893;28;20080;-64
2022/01/17 03:12:02;;;;;;;13.82;1.65;;;;;;;;;;5103980;28;20118;-64
2022/01/17 03:14:27;;;;;;;17.25;2.22;;;;;;;;;;5071209;28;20087;-64
2022/01/17 03:16:55;;;;;;;16.50;1.92;;;;;;;;;;5070812;28;20374;-64
2022/01/17 03:19:21;;;;;;;15.30;2.05;;;;;;;;;;5070929;28;20044;-64
2022/01/17 03:21:47;;;;;;;22.10;2.80;;;;;;;;;;5071199;28;20036;-64
2022/01/17 03:24:13;;;;;;;17.85;2.50;;;;;;;;;;5070532;28;20097;-64
2022/01/17 03:26:39;;;;;;;16.17;2.20;;;;;;;;;;5057722;28;20411;-64
2022/01/17 03:29:05;;;;;;;23.48;2.88;;;;;;;;;;5051153;28;20099;-64
2022/01/17 03:31:31;;;;;;;15.07;2.35;;;;;;;;;;5049385;28;20045;-64
2022/01/17 03:33:57;;;;;;;16.38;2.45;;;;;;;;;;5050751;28;20124;-64
2022/01/17 03:36:23;;;;;;;18.17;2.75;;;;;;;;;;5051131;28;20037;-64
2022/01/17 03:38:50;;;;;;;17.30;2.40;;;;;;;;;;5050672;28;20544;-64
2022/01/17 03:41:16;;;;;;;15.68;2.22;;;;;;;;;;5050658;28;20040;-64
2022/01/17 03:43:42;;;;;;;21.90;2.45;;;;;;;;;;5049707;28;20095;-64
2022/01/17 03:46:08;;;;;;;13.93;2.20;;;;;;;;;;5050849;28;20052;-64
2022/01/17 03:48:34;;;;;;;16.88;2.22;;;;;;;;;;5049076;28;20040;-64
2022/01/17 03:51:01;;;;;;;12.80;2.28;;;;;;;;;;5050547;28;20131;-64
2022/01/17 03:53:28;;;;;;;15.98;2.95;;;;;;;;;;5049227;28;20048;-64
2022/01/17 03:55:54;;;;;;;16.50;2.00;;;;;;;;;;5050260;28;20041;-64
2022/01/17 03:58:21;;;;;;;14.63;2.08;;;;;;;;;;5050450;28;20479;-64
2022/01/17 04:00:48;;;;;;;17.38;2.47;;;;;;;;;;5049477;28;20098;-64
2022/01/17 04:03:14;;;;;;;21.98;2.72;;;;;;;;;;5049859;28;20041;-64
2022/01/17 04:05:40;;;;;;;16.50;2.30;;;;;;;;;;5050597;28;20499;-64
2022/01/17 04:08:07;;;;;;;15.63;2.13;;;;;;;;;;5050781;28;20069;-64
2022/01/17 04:10:33;;;;;;;15.35;1.98;;;;;;;;;;5049792;28;20040;-64
2022/01/17 04:13:04;;;;;;;13.20;1.95;;;;;;;;;;5050421;28;20559;-64
2022/01/17 04:15:30;;;;;;;14.32;2.38;;;;;;;;;;5050451;28;20048;-64
2022/01/17 04:17:56;;;;;;;14.43;2.40;;;;;;;;;;5049700;28;20097;-64
2022/01/17 04:20:27;;;;;;;14.88;2.50;;;;;;;;;;5050321;28;20045;-64
2022/01/17 04:22:55;;;;;;;12.20;1.52;;;;;;;;;;5048533;28;20095;-64
2022/01/17 04:25:22;;;;;;;15.55;2.33;;;;;;;;;;5051348;28;20515;-64
2022/01/17 04:27:48;;;;;;;15.30;1.92;;;;;;;;;;5070111;28;20057;-64
2022/01/17 04:30:15;;;;;;;17.58;1.90;;;;;;;;;;5102512;28;20178;-64
2022/01/17 04:32:42;;;;;;;11.35;1.55;;;;;;;;;;5102312;28;20136;-64
2022/01/17 04:35:08;;;;;;;13.30;2.10;;;;;;;;;;5070141;28;20379;-64
2022/01/17 04:37:34;;;;;;;10.10;1.83;;;;;;;;;;5070292;28;20175;-64
2022/01/17 04:40:00;;;;;;;14.25;2.03;;;;;;;;;;5069356;28;20511;-64
2022/01/17 04:42:28;;;;;;;15.70;2.10;;;;;;;;;;5072686;28;20037;-64
2022/01/17 04:45:15;;;;;;;17.08;2.55;;;;;;;;;;5074064;28;20482;-64
2022/01/17 04:47:42;;;;;;;11.52;1.75;;;;;;;;;;5106178;28;20044;-64
2022/01/17 04:50:10;;;;;;;16.67;2.88;;;;;;;;;;5074217;28;20044;-64
2022/01/17 04:52:36;;;;;;;16.20;3.08;;;;;;;;;;5074317;28;20040;-64
2022/01/17 04:55:06;;;;;;;12.77;1.85;;;;;;;;;;5073552;28;20075;-64
2022/01/17 04:57:32;;;;;;;18.13;2.45;;;;;;;;;;5106903;28;20052;-64
2022/01/17 04:59:58;;;;;;;21.25;2.75;;;;;;;;;;5074086;28;20059;-64
2022/01/17 05:02:25;;;;;;;10.88;2.00;;;;;;;;;;5073039;28;20044;-64
2022/01/17 05:04:51;;;;;;;16.40;2.97;;;;;;;;;;5073515;28;20501;-64
2022/01/17 05:07:17;;;;;;;12.23;2.20;;;;;;;;;;5073967;28;20537;-64
2022/01/17 05:09:44;;;;;;;16.30;1.75;;;;;;;;;;5073207;28;20040;-64
2022/01/17 05:12:12;;;;;;;11.38;2.50;;;;;;;;;;5106166;28;20453;-64
2022/01/17 05:14:43;;;;;;;11.32;1.63;;;;;;;;;;5073622;28;20501;-64
2022/01/17 05:17:34;;;;;;;14.03;2.50;;;;;;;;;;5073071;28;20041;-64
2022/01/17 05:19:59;;;;;;;15.68;2.70;;;;;;;;;;5073107;28;20364;-64
2022/01/17 05:22:33;;;;;;;14.15;2.33;;;;;;;;;;5072664;28;20093;-64
2022/01/17 05:25:00;;;;;;;17.48;2.55;;;;;;;;;;5106039;28;20091;-64
2022/01/17 05:27:26;;;;;;;15.70;2.65;;;;;;;;;;5089304;28;20056;-64
2022/01/17 05:29:52;;;;;;;15.55;2.20;;;;;;;;;;5072846;28;20033;-64
2022/01/17 05:32:20;;;;;;;15.27;2.15;;;;;;;;;;5073062;28;20066;-64
2022/01/17 05:34:46;;;;;;;12.05;2.20;;;;;;;;;;5073224;28;20469;-64
2022/01/17 05:37:15;;;;;;;18.85;2.97;;;;;;;;;;5073060;28;20041;-64
2022/01/17 05:39:42;;;;;;;15.45;2.25;;;;;;;;;;5072187;28;20036;-64
2022/01/17 05:42:09;;;;;;;12.48;2.15;;;;;;;;;;5072837;28;20076;-64
2022/01/17 05:44:36;;;;;;;22.92;2.85;;;;;;;;;;5071508;28;20102;-64
2022/01/17 05:47:02;;;;;;;17.50;3.05;;;;;;;;;;5072790;28;20079;-64
2022/01/17 05:49:28;;;;;;;15.73;3.00;;;;;;;;;;5073120;28;20049;-64
2022/01/17 05:51:54;;;;;;;14.25;2.33;;;;;;;;;;5072849;28;20495;-64
2022/01/17 05:54:20;;;;;;;18.83;3.45;;;;;;;;;;5071393;28;20036;-64
2022/01/17 05:56:46;;;;;;;13.65;2.72;;;;;;;;;;5073125;28;20055;-64
2022/01/17 05:59:12;;;;;;;28.35;3.70;;;;;;;;;;5071690;28;20049;-64
2022/01/17 06:01:41;;;;;;;19.42;2.75;;;;;;;;;;5070750;28;20130;-64
2022/01/17 06:04:07;;;;;;;21.88;3.40;;;;;;;;;;5071080;28;20048;-64
2022/01/17 06:06:33;;;;;;;18.92;3.60;;;;;;;;;;5072789;28;20041;-64
2022/01/17 06:08:59;;;;;;;16.50;3.70;;;;;;;;;;5072271;28;20028;-64
2022/01/17 06:11:25;;;;;;;21.40;3.72;;;;;;;;;;5073063;28;20036;-64
2022/01/17 06:13:51;;;;;;;13.20;3.38;;;;;;;;;;5072545;28;20051;-64
2022/01/17 06:16:17;;;;;;;18.55;3.13;;;;;;;;;;5070114;28;20477;-64
2022/01/17 06:18:43;;;;;;;19.00;3.35;;;;;;;;;;5072365;28;20505;-64
2022/01/17 06:21:09;;;;;;;19.58;3.70;;;;;;;;;;5072288;28;20040;-64
2022/01/17 06:23:35;;;;;;;32.30;4.18;;;;;;;;;;5071964;28;20042;-64
2022/01/17 06:26:01;;;;;;;19.60;4.13;;;;;;;;;;5072217;28;20398;-64
2022/01/17 06:28:28;;;;;;;19.77;4.05;;;;;;;;;;5072135;28;20418;-64
2022/01/17 06:30:54;;;;;;;18.08;3.83;;;;;;;;;;5071742;28;20548;-64
2022/01/17 06:33:20;;;;;;;16.40;4.57;;;;;;;;;;5071975;28;20409;-64
2022/01/17 06:35:46;;;;;;;15.23;3.75;;;;;;;;;;5103917;28;20040;-64
2022/01/17 06:38:15;;;;;;;17.45;4.82;;;;;;;;;;5072303;28;20044;-65
2022/01/17 06:40:41;;;;;;;19.15;4.72;;;;;;;;;;5071060;28;20374;-65
2022/01/17 06:43:08;;;;;;;21.77;3.95;;;;;;;;;;5072152;28;20044;-64
2022/01/17 06:45:35;;;;;;;20.45;4.30;;;;;;;;;;5071031;28;20399;-65
2022/01/17 06:48:01;;;;;;;22.60;4.70;;;;;;;;;;5070366;28;20040;-64
2022/01/17 06:50:27;;;;;;;25.73;6.20;;;;;;;;;;5070858;28;20032;-64
2022/01/17 06:52:53;;;;;;;21.33;4.80;;;;;;;;;;5069146;28;20131;-64
2022/01/17 06:55:19;;;;;;;21.55;5.00;;;;;;;;;;5072530;28;20070;-65
2022/01/17 06:57:45;;;;;;;22.05;4.22;;;;;;;;;;5071151;28;20403;-65
2022/01/17 07:00:12;;;;;;;26.25;5.07;;;;;;;;;;5070229;28;20041;-65
2022/01/17 07:02:40;;;;;;;21.75;5.20;;;;;;;;;;5071329;28;20407;-66
2022/01/17 07:05:06;;;;;;;28.30;4.97;;;;;;;;;;5069872;28;20055;-66
2022/01/17 07:07:32;;;;;;;19.77;5.00;;;;;;;;;;5069106;28;20712;-64
2022/01/17 07:09:58;;;;;;;28.85;5.68;;;;;;;;;;5072566;28;20043;-65
2022/01/17 07:12:27;;;;;;;21.45;4.80;;;;;;;;;;5071653;28;20036;-66
2022/01/17 07:14:53;;;;;;;24.85;5.55;;;;;;;;;;5069678;28;20041;-65
2022/01/17 07:17:19;;;;;;;24.25;5.95;;;;;;;;;;5070122;28;20052;-65
2022/01/17 07:19:45;;;;;;;28.58;5.15;;;;;;;;;;5071111;28;20433;-65
2022/01/17 07:22:11;;;;;;;20.08;5.22;;;;;;;;;;5070853;28;20043;-63
2022/01/17 07:24:38;;;;;;;25.42;4.90;;;;;;;;;;5071110;28;20032;-65
2022/01/17 07:27:04;;;;;;;18.00;6.35;;;;;;;;;;5067324;28;20605;-66
2022/01/17 07:29:30;;;;;;;30.52;6.18;;;;;;;;;;5070597;28;20036;-64
2022/01/17 07:31:56;;;;;;;25.45;5.22;;;;;;;;;;5069829;28;20060;-65
2022/01/17 07:34:23;;;;;;;20.02;5.47;;;;;;;;;;5070809;28;20048;-66
2022/01/17 07:36:49;;;;;;;24.70;4.32;;;;;;;;;;5098522;28;20067;-66
2022/01/17 07:39:25;;;;;;;22.20;4.78;;;;;;;;;;5069311;28;20044;-66
2022/01/17 07:41:51;;;;;;;23.65;4.70;;;;;;;;;;5067968;28;20040;-65
2022/01/17 07:44:22;;;;;;;25.88;4.30;;;;;;;;;;5057994;28;20540;-67
2022/01/17 07:46:53;;;;;;;32.38;5.10;;;;;;;;;;5070045;28;20414;-64
2022/01/17 07:49:20;;;;;;;16.58;4.18;;;;;;;;;;5052356;28;20106;-65
2022/01/17 07:52:06;;;;;;;27.95;4.97;;;;;;;;;;5101896;28;20139;-66
2022/01/17 07:54:35;;;;;;;21.88;4.78;;;;;;;;;;5069966;28;20110;-66
2022/01/17 07:57:01;;;;;;;24.92;4.15;;;;;;;;;;5068960;28;20044;-65
2022/01/17 07:59:28;;;;;;;31.42;4.03;;;;;;;;;;5069374;28;20105;-66
2022/01/17 08:01:54;;;;;;;29.27;5.03;;;;;;;;;;5099942;28;20097;-65
2022/01/17 08:04:20;;;;;;;30.73;4.70;;;;;;;;;;5070022;28;20044;-65
2022/01/17 08:07:16;;;;;;;29.65;4.93;;;;;;;;;;5069691;28;20419;-65
2022/01/17 08:09:47;;;;;;;21.75;4.20;;;;;;;;;;5069095;28;20055;-65
2022/01/17 08:12:13;;;;;;;17.80;3.55;;;;;;;;;;5055235;28;20036;-64
2022/01/17 08:14:40;;;;;;;27.38;4.18;;;;;;;;;;5069449;28;20113;-63
2022/01/17 08:17:06;;;;;;;27.92;4.20;;;;;;;;;;5068515;28;20044;-66
2022/01/17 08:19:33;;;;;;;25.30;4.30;;;;;;;;;;5068321;28;20083;-64
2022/01/17 08:22:03;;;;;;;28.27;5.10;;;;;;;;;;5068870;28;20058;-66
2022/01/17 08:24:29;;;;;;;26.80;4.40;;;;;;;;;;5069312;28;20047;-65
2022/01/17 08:26:56;;;;;;;22.95;3.72;;;;;;;;;;5070186;28;20053;-65
2022/01/17 08:29:25;;;;;;;22.60;3.40;;;;;;;;;;5068505;28;20087;-64
2022/01/17 08:31:51;;;;;;;29.42;3.85;;;;;;;;;;5070402;28;20112;-62
2022/01/17 08:34:18;;;;;;;27.10;4.68;;;;;;;;;;5068592;28;20120;-63
2022/01/17 08:36:44;;;;;;;19.58;4.47;;;;;;;;;;5068279;28;20051;-63
2022/01/17 08:39:10;;;;;;;22.40;3.63;;;;;;;;;;5068248;28;20044;-63
2022/01/17 08:41:42;;;;;;;26.25;4.05;;;;;;;;;;5069274;28;20051;-63
2022/01/17 08:44:12;;;;;;;30.02;4.43;;;;;;;;;;5043637;28;20487;-67
2022/01/17 08:46:39;;;;;;;23.17;4.45;;;;;;;;;;5069652;28;20044;-67
2022/01/17 08:49:05;;;;;;;29.13;4.43;;;;;;;;;;5066947;28;20391;-65
2022/01/17 08:51:31;;;;;;;35.50;4.85;;;;;;;;;;5068657;28;20044;-66
2022/01/17 08:53:57;;;;;;;33.42;4.45;;;;;;;;;;5069270;28;20040;-65
2022/01/17 08:56:23;;;;;;;33.13;4.15;;;;;;;;;;5069188;28;20498;-66
2022/01/17 08:58:49;;;;;;;32.15;3.83;;;;;;;;;;5067955;28;20503;-66
2022/01/17 09:01:15;;;;;;;27.65;4.07;;;;;;;;;;5068409;28;20071;-65
2022/01/17 09:03:42;;;;;;;29.38;3.40;;;;;;;;;;5064235;28;20382;-66
2022/01/17 09:06:08;;;;;;;32.42;4.93;;;;;;;;;;5068984;28;20649;-66
2022/01/17 09:08:34;;;;;;;25.55;4.65;;;;;;;;;;5069856;28;20117;-66
2022/01/17 09:11:00;;;;;;;25.67;4.95;;;;;;;;;;5070468;28;20044;-65
2022/01/17 09:13:26;;;;;;;22.77;4.15;;;;;;;;;;5068299;28;20044;-66
2022/01/17 09:15:52;;;;;;;34.40;3.63;;;;;;;;;;5068647;28;20044;-66
2022/01/17 09:18:20;;;;;;;29.75;4.38;;;;;;;;;;5069907;28;20076;-65
2022/01/17 09:20:47;;;;;;;34.67;4.05;;;;;;;;;;5069127;28;20056;-67
2022/01/17 09:23:13;;;;;;;27.05;4.15;;;;;;;;;;5069668;28;20101;-67
2022/01/17 09:25:39;;;;;;;31.75;4.18;;;;;;;;;;5062928;28;20515;-67
2022/01/17 09:28:06;;;;;;;28.40;4.75;;;;;;;;;;5069640;28;20064;-67
2022/01/17 09:30:32;;;;;;;31.20;5.65;;;;;;;;;;5071677;28;20048;-67
2022/01/17 09:32:58;;;;;;;30.75;4.30;;;;;;;;;;5071902;28;20115;-67
2022/01/17 09:35:24;;;;;;;38.58;4.43;;;;;;;;;;5070349;28;20055;-67
2022/01/17 09:37:51;;;;;;;37.95;5.90;;;;;;;;;;5071399;28;20479;-68
2022/01/17 09:40:19;;;;;;;37.70;4.43;;;;;;;;;;5071852;28;20110;-66
2022/01/17 09:42:45;;;;;;;28.88;4.32;;;;;;;;;;5072786;28;20041;-67
2022/01/17 09:45:12;;;;;;;31.15;4.68;;;;;;;;;;5072304;28;20102;-67
2022/01/17 09:47:40;;;;;;;32.22;4.57;;;;;;;;;;5073415;28;20037;-67
2022/01/17 09:50:09;;;;;;;37.10;4.75;;;;;;;;;;5071781;28;20048;-67
2022/01/17 09:52:35;;;;;;;36.33;5.03;;;;;;;;;;5070744;28;20040;-66
2022/01/17 09:55:15;;;;;;;31.80;5.20;;;;;;;;;;5072199;28;20075;-66
2022/01/17 09:57:52;;;;;;;25.67;3.70;;;;;;;;;;5104613;28;20047;-66
2022/01/17 10:00:19;;;;;;;33.67;5.05;;;;;;;;;;5069540;28;20041;-65
2022/01/17 10:02:45;;;;;;;31.60;4.38;;;;;;;;;;5067424;28;20033;-66
2022/01/17 10:05:11;;;;;;;37.90;5.13;;;;;;;;;;5069869;28;20148;-66
2022/01/17 10:07:56;;;;;;;35.63;4.30;;;;;;;;;;5071330;28;20102;-66
2022/01/17 10:10:38;;;;;;;32.85;4.13;;;;;;;;;;5072718;28;20071;-66
2022/01/17 10:13:24;;;;;;;37.30;5.22;;;;;;;;;;5055117;28;20118;-67
2022/01/17 10:16:09;;;;;;;38.30;4.30;;;;;;;;;;5072319;28;20043;-66
2022/01/17 10:18:48;;;;;;;34.90;5.05;;;;;;;;;;5072173;28;20076;-66
2022/01/17 10:21:40;;;;;;;37.00;4.00;;;;;;;;;;5068557;28;20045;-65
2022/01/17 10:24:23;;;;;;;32.13;4.60;;;;;;;;;;5071411;28;20074;-66
2022/01/17 10:29:42;;;;;;;30.30;4.97;;;;;;;;;;5065400;28;19916;-66
2022/01/17 10:34:56;;;;;;;31.88;6.10;;;;;;;;;;5070210;28;20655;-66
2022/01/17 10:37:27;;;;;;;31.27;4.85;;;;;;;;;;5095749;28;20570;-67
2022/01/17 10:39:58;;;;;;;34.53;5.60;;;;;;;;;;5070827;28;20032;-66
2022/01/17 10:42:30;;;;;;;41.67;5.43;;;;;;;;;;5071100;28;20044;-66
2022/01/17 10:44:56;;;;;;;;;;;;;;;;;;5072708;28;20044;-66
2022/01/17 10:47:24;;;;;;;44.55;6.38;;;;;;;;;;5071799;28;19916;-66
2022/01/17 10:49:53;;;;;;;38.22;5.05;;;;;;;;;;5071345;28;20044;-66
2022/01/17 10:52:29;;;;;;;41.25;5.32;;;;;;;;;;5070788;28;20052;-66
2022/01/17 10:54:56;;;;;;;33.20;5.53;;;;;;;;;;5071021;28;20458;-67
2022/01/17 10:57:22;;;;;;;41.58;4.90;;;;;;;;;;5054282;28;20394;-66
2022/01/17 10:59:51;;;;;;;35.33;5.25;;;;;;;;;;5070479;28;20078;-67
2022/01/17 11:02:17;;;;;;;39.42;5.68;;;;;;;;;;5070367;28;20507;-67
2022/01/17 11:04:44;;;;;;;32.83;5.38;;;;;;;;;;5065794;28;20036;-67
2022/01/17 11:07:10;;;;;;;27.92;6.03;;;;;;;;;;5100057;28;20040;-66
2022/01/17 11:09:43;;;;;;;38.35;6.90;;;;;;;;;;5070710;28;20048;-67
2022/01/17 11:12:10;;;;;;;37.50;5.10;;;;;;;;;;5070240;28;20083;-66
2022/01/17 11:14:37;;;;;;;35.00;4.93;;;;;;;;;;5071061;28;20041;-67
2022/01/17 11:17:21;;;;;;;40.03;5.40;;;;;;;;;;5070610;28;20052;-67
2022/01/17 11:20:04;;;;;;;39.17;5.75;;;;;;;;;;5070858;28;20044;-67
2022/01/17 11:22:30;;;;;;;;;;;;;;;;;;5069765;28;20495;-68
2022/01/17 11:24:57;;;;;;;42.28;6.20;;;;;;;;;;5070729;28;20363;-67
2022/01/17 11:27:23;;;;;;;39.08;5.72;;;;;;;;;;5069673;28;20064;-68
2022/01/17 11:29:50;;;;;;;41.00;6.05;;;;;;;;;;5068694;28;20044;-67
2022/01/17 11:32:17;;;;;;;44.00;5.40;;;;;;;;;;5071307;28;20702;-66
2022/01/17 11:34:43;;;;;;;37.38;5.60;;;;;;;;;;5069818;28;20402;-66
2022/01/17 11:37:10;;;;;;;41.47;6.15;;;;;;;;;;5103265;28;20071;-66
2022/01/17 11:39:53;;;;;;;46.03;6.82;;;;;;;;;;5069824;28;20127;-66
2022/01/17 11:42:38;;;;;;;40.30;6.25;;;;;;;;;;5070907;28;20431;-66
2022/01/17 11:45:24;;;;;;;41.05;5.95;;;;;;;;;;5071090;28;20044;-66
2022/01/17 11:48:04;;;;;;;45.92;6.55;;;;;;;;;;5059517;28;20067;-66
2022/01/17 11:50:31;;;;;;;42.67;6.00;;;;;;;;;;5070878;28;20128;-66
2022/01/17 11:53:20;;;;;;;47.83;7.68;;;;;;;;;;5070517;28;20095;-66
2022/01/17 11:55:49;;;;;;;51.17;6.63;;;;;;;;;;5060574;28;20045;-67
2022/01/17 11:58:29;;;;;;;49.17;6.88;;;;;;;;;;5065303;28;20050;-67
2022/01/17 12:01:01;;;;;;;39.65;5.68;;;;;;;;;;5070185;28;20485;-67
2022/01/17 12:03:27;;;;;;;36.50;5.15;;;;;;;;;;5069818;28;20100;-67
2022/01/17 12:05:54;;;;;;;41.47;5.57;;;;;;;;;;5067645;28;20045;-67
2022/01/17 12:08:21;;;;;;;38.03;5.65;;;;;;;;;;5070115;28;20044;-66
2022/01/17 12:10:49;;;;;;;41.00;6.95;;;;;;;;;;5068594;28;20051;-66
2022/01/17 12:13:17;;;;;;;45.40;5.70;;;;;;;;;;5070764;28;20075;-67
2022/01/17 12:16:06;;;;;;;33.88;5.50;;;;;;;;;;5070653;28;20051;-67
2022/01/17 12:18:33;;;;;;;41.60;5.97;;;;;;;;;;5068019;28;20143;-67
2022/01/17 12:21:17;;;;;;;45.15;6.43;;;;;;;;;;5070933;28;20047;-67
2022/01/17 12:23:44;;;;;;;33.15;5.95;;;;;;;;;;5069416;28;20071;-67
2022/01/17 12:26:27;;;;;;;37.67;5.53;;;;;;;;;;5069685;28;20045;-68
2022/01/17 12:28:54;;;;;;;33.35;6.13;;;;;;;;;;5050459;28;20045;-66
2022/01/17 12:31:39;;;;;;;38.33;5.30;;;;;;;;;;5079904;28;20075;-67
2022/01/17 12:34:16;;;;;;;39.40;5.07;;;;;;;;;;5069393;28;20043;-67
2022/01/17 12:36:42;;;;;;;25.52;4.82;;;;;;;;;;5070590;28;20072;-67
2022/01/17 12:39:11;;;;;;;34.20;6.13;;;;;;;;;;5068568;28;20045;-67
2022/01/17 12:41:41;;;;;;;41.42;5.43;;;;;;;;;;5070845;28;20044;-67
2022/01/17 12:44:26;;;;;;;35.92;5.50;;;;;;;;;;5069716;28;20124;-67
2022/01/17 12:46:54;;;;;;;44.97;7.20;;;;;;;;;;5069275;28;20056;-66
2022/01/17 12:49:20;;;;;;;31.10;5.78;;;;;;;;;;5102591;28;20049;-66
2022/01/17 12:51:47;;;;;;;44.03;5.57;;;;;;;;;;5068881;28;20040;-66
2022/01/17 12:54:15;;;;;;;50.05;7.43;;;;;;;;;;5069484;28;20045;-66
2022/01/17 12:56:42;;;;;;;36.80;5.57;;;;;;;;;;5070007;28;20036;-66
2022/01/17 12:59:09;;;;;;;33.05;5.22;;;;;;;;;;5068334;28;20061;-67
2022/01/17 13:01:35;;;;;;;44.58;6.25;;;;;;;;;;5069402;28;20081;-66
2022/01/17 13:04:06;;;;;;;40.60;5.93;;;;;;;;;;5073078;28;20109;-66
2022/01/17 13:06:33;;;;;;;36.33;4.97;;;;;;;;;;5074041;28;20479;-66
2022/01/17 13:08:59;;;;;;;34.55;5.30;;;;;;;;;;5073097;28;20040;-67
2022/01/17 13:11:25;;;;;;;35.25;5.20;;;;;;;;;;5073572;28;20044;-67
2022/01/17 13:14:01;;;;;;;30.83;4.80;;;;;;;;;;5073276;28;20043;-68
2022/01/17 13:16:28;;;;;;;30.05;4.28;;;;;;;;;;5065841;28;20063;-67
2022/01/17 13:18:55;;;;;;;29.45;4.32;;;;;;;;;;5072724;28;20051;-67
2022/01/17 13:21:22;;;;;;;34.78;5.15;;;;;;;;;;5074257;28;20455;-67
2022/01/17 13:23:53;;;;;;;41.00;4.88;;;;;;;;;;5073051;28;20047;-67
2022/01/17 13:26:23;;;;;;;42.88;5.60;;;;;;;;;;5072639;28;20064;-67
2022/01/17 13:28:50;;;;;;;39.92;6.03;;;;;;;;;;5055653;28;20044;-66
2022/01/17 13:31:17;;;;;;;31.75;5.55;;;;;;;;;;5072432;28;20582;-67
2022/01/17 13:33:43;;;;;;;34.38;4.95;;;;;;;;;;5074245;28;20039;-67
2022/01/17 13:36:10;;;;;;;30.60;5.78;;;;;;;;;;5073429;28;20041;-66
2022/01/17 13:38:36;;;;;;;42.40;5.55;;;;;;;;;;5071813;28;20055;-68
2022/01/17 13:41:03;;;;;;;35.17;5.40;;;;;;;;;;5072804;28;20036;-68
2022/01/17 13:43:29;;;;;;;40.25;5.32;;;;;;;;;;5072005;28;20060;-67
2022/01/17 13:45:55;;;;;;;34.25;5.00;;;;;;;;;;5072051;28;20056;-68
2022/01/17 13:48:26;;;;;;;42.25;6.28;;;;;;;;;;5072196;28;20036;-67
2022/01/17 13:50:57;;;;;;;27.33;4.82;;;;;;;;;;5073931;28;20086;-67
2022/01/17 13:53:24;;;;;;;41.58;5.97;;;;;;;;;;5072115;28;20041;-67
2022/01/17 13:55:51;;;;;;;35.33;5.63;;;;;;;;;;5072045;28;20424;-67
2022/01/17 13:58:18;;;;;;;29.33;5.10;;;;;;;;;;5065459;28;20501;-67
2022/01/17 14:00:46;;;;;;;35.65;5.43;;;;;;;;;;5070632;28;20477;-67
2022/01/17 14:03:13;;;;;;;33.08;5.70;;;;;;;;;;5072870;28;20037;-68
2022/01/17 14:05:44;;;;;;;26.90;4.78;;;;;;;;;;5071757;28;20040;-67
2022/01/17 14:08:21;;;;;;;37.38;5.20;;;;;;;;;;5070994;28;20048;-67
2022/01/17 14:10:50;;;;;;;40.90;5.05;;;;;;;;;;5071253;28;20040;-67
2022/01/17 14:13:22;;;;;;;26.48;5.32;;;;;;;;;;5072872;28;20040;-66
2022/01/17 14:15:48;;;;;;;;;;;;;;;;;;5070867;28;21280;-66
2022/01/17 14:18:15;;;;;;;37.63;7.03;;;;;;;;;;5071913;28;20005;-66
2022/01/17 14:20:49;;;;;;;40.38;6.53;;;;;;;;;;5072362;28;20098;-65
2022/01/17 14:23:26;;;;;;;26.70;5.05;;;;;;;;;;5071983;28;20098;-65
2022/01/17 14:25:52;;;;;;;24.58;3.50;;;;;;;;;;5072076;28;20111;-66
2022/01/17 14:28:19;;;;;;;27.52;4.78;;;;;;;;;;5092717;28;20040;-66
2022/01/17 14:30:47;;;;;;;26.23;4.55;;;;;;;;;;5071723;28;20032;-66
2022/01/17 14:33:13;;;;;;;30.27;4.60;;;;;;;;;;5071546;28;20441;-66
2022/01/17 14:35:58;;;;;;;25.80;4.38;;;;;;;;;;5072437;28;20036;-66
2022/01/17 14:38:24;;;;;;;27.13;4.15;;;;;;;;;;5070138;28;20056;-66
2022/01/17 14:40:51;;;;;;;36.35;5.25;;;;;;;;;;5072036;28;20039;-68
2022/01/17 14:43:17;;;;;;;24.23;3.97;;;;;;;;;;5069967;28;20047;-66
2022/01/17 14:45:50;;;;;;;23.95;3.65;;;;;;;;;;5062041;28;20572;-65
2022/01/17 14:48:17;;;;;;;25.13;3.90;;;;;;;;;;5069777;28;20226;-67
2022/01/17 14:50:43;;;;;;;32.40;4.30;;;;;;;;;;5076551;28;20040;-67
2022/01/17 14:53:17;;;;;;;27.65;4.50;;;;;;;;;;5052302;28;20159;-65
2022/01/17 14:59:29;;;;;;;31.75;3.95;;;;;;;;;;5069937;28;20051;-67